Time;durP1;ratioP1;P1;durP2;ratioP2;P2;SDS_P1;SDS_P2;PMS_P1;PMS_P2;Temp;Humidity;BMP_temperature;BMP_pressure;BME280_temperature;BME280_humidity;BME280_pressure;Samples;Min_cycle;Max_cycle;Signal;HPM_P1;HPM_P2
2022/09/30 00:01:08;;;;;;;17.13;13.93;;;;;;;13.68;100.00;100250.16;1757398;81;21058;-61
2022/09/30 00:03:36;;;;;;;14.77;12.80;;;;;;;13.68;100.00;100247.03;1756199;81;21691;-59
2022/09/30 00:06:05;;;;;;;16.77;13.53;;;;;;;13.63;100.00;100250.23;1753105;81;21592;-60
2022/09/30 00:08:33;;;;;;;16.77;14.43;;;;;;;13.67;100.00;100251.95;1757449;81;21000;-59
2022/09/30 00:11:12;;;;;;;17.30;15.50;;;;;;;13.62;100.00;100246.52;1757351;81;21008;-59
2022/09/30 00:13:40;;;;;;;18.43;14.53;;;;;;;13.67;100.00;100251.95;1752949;81;21171;-58
2022/09/30 00:16:09;;;;;;;16.83;14.23;;;;;;;13.66;100.00;100260.83;1755415;81;20952;-59
2022/09/30 00:18:37;;;;;;;18.03;14.43;;;;;;;13.67;100.00;100252.45;1758421;81;20999;-59
2022/09/30 00:21:04;;;;;;;18.13;14.03;;;;;;;13.68;100.00;100247.03;1758524;81;20939;-59
2022/09/30 00:23:32;;;;;;;17.67;14.60;;;;;;;13.70;100.00;100255.48;1751322;81;20936;-60
2022/09/30 00:26:04;;;;;;;19.90;15.20;;;;;;;13.58;100.00;100254.48;1751200;81;21244;-58
2022/09/30 00:28:32;;;;;;;18.97;15.50;;;;;;;13.56;100.00;100260.42;1751204;81;20932;-59
2022/09/30 00:31:01;;;;;;;19.10;15.27;;;;;;;13.72;100.00;100257.91;1750482;81;21584;-58
2022/09/30 00:33:28;;;;;;;18.53;15.37;;;;;;;13.75;100.00;100259.62;1751003;81;20920;-59
2022/09/30 00:35:56;;;;;;;17.57;15.37;;;;;;;13.75;100.00;100259.62;1751136;81;20936;-59
2022/09/30 00:38:23;;;;;;;20.87;16.47;;;;;;;13.77;100.00;100262.03;1751148;81;21343;-59
2022/09/30 00:40:50;;;;;;;21.83;17.60;;;;;;;13.76;100.00;100269.09;1750301;81;20873;-59
2022/09/30 00:43:40;;;;;;;20.60;16.67;;;;;;;13.84;100.00;100262.83;1751208;81;21403;-59
2022/09/30 00:46:19;;;;;;;21.15;17.25;;;;;;;13.83;100.00;100267.27;1751307;81;20932;-59
2022/09/30 00:48:52;;;;;;;20.17;17.10;;;;;;;13.90;100.00;100262.50;1751199;81;21007;-59
2022/09/30 00:51:18;;;;;;;21.65;17.15;;;;;;;13.97;100.00;100259.37;1751127;81;21228;-59
2022/09/30 00:53:50;;;;;;;16.97;15.13;;;;;;;14.07;100.00;100267.11;1751026;81;20920;-58
2022/09/30 00:56:22;;;;;;;22.23;16.23;;;;;;;14.09;100.00;100263.80;1750624;81;20916;-60
2022/09/30 00:59:12;;;;;;;23.30;18.00;;;;;;;14.10;100.00;100261.97;1751339;81;20955;-59
2022/09/30 01:01:40;;;;;;;21.40;18.33;;;;;;;14.13;100.00;100261.56;1750115;81;20975;-60
2022/09/30 01:04:26;;;;;;;22.57;16.90;;;;;;;14.05;100.00;100259.14;1750812;81;21227;-59
2022/09/30 01:06:55;;;;;;;25.60;17.50;;;;;;;13.99;100.00;100258.67;1723701;81;20898;-59
2022/09/30 01:09:22;;;;;;;22.20;18.23;;;;;;;14.09;100.00;100259.03;1723184;81;20904;-63
2022/09/30 01:11:50;;;;;;;20.90;17.60;;;;;;;14.09;100.00;100261.66;1751061;81;21009;-59
2022/09/30 01:14:20;;;;;;;23.07;19.03;;;;;;;14.17;100.00;100253.59;1751217;81;20964;-59
2022/09/30 01:17:02;;;;;;;20.97;17.02;;;;;;;14.19;100.00;100260.72;1751313;81;21223;-59
2022/09/30 01:19:57;;;;;;;;;;;;;;;14.19;100.00;100258.10;1753174;81;20880;-59
2022/09/30 01:22:57;;;;;;;25.67;18.17;;;;;;;14.20;100.00;100262.84;1751069;81;20115;-60
2022/09/30 01:25:57;;;;;;;21.63;18.23;;;;;;;14.14;100.00;100271.03;1742835;81;21517;-60
2022/09/30 01:29:06;;;;;;;24.03;19.50;;;;;;;14.11;100.00;100279.30;1751152;81;21063;-60
2022/09/30 01:31:48;;;;;;;23.33;18.80;;;;;;;14.03;100.00;100270.35;1750714;81;23198;-59
2022/09/30 01:34:52;;;;;;;20.10;17.60;;;;;;;14.03;100.00;100271.66;1721803;81;20992;-59
2022/09/30 01:37:43;;;;;;;24.87;18.03;;;;;;;14.00;100.00;100276.00;1750719;81;21060;-59
2022/09/30 01:40:24;;;;;;;21.60;17.37;;;;;;;13.99;100.00;100283.06;1751154;81;20993;-63
2022/09/30 01:43:06;;;;;;;19.50;16.52;;;;;;;13.94;100.00;100278.95;1751315;81;21560;-59
2022/09/30 01:45:49;;;;;;;24.05;17.37;;;;;;;13.96;100.00;100282.16;1751348;81;21198;-59
2022/09/30 01:48:28;;;;;;;19.37;15.03;;;;;;;13.90;100.00;100285.58;1751339;81;22523;-59
2022/09/30 01:51:07;;;;;;;22.53;18.10;;;;;;;13.91;100.00;100283.28;1751115;81;20976;-59
2022/09/30 01:53:43;;;;;;;19.50;17.37;;;;;;;13.87;100.00;100294.67;1750525;81;20928;-59
2022/09/30 01:56:31;;;;;;;22.83;17.83;;;;;;;13.83;100.00;100288.23;1751213;81;20885;-60
2022/09/30 01:59:31;;;;;;;21.40;18.00;;;;;;;13.79;100.00;100294.09;1750648;81;21148;-60
2022/09/30 02:02:03;;;;;;;28.80;18.37;;;;;;;13.73;100.00;100287.02;1751164;81;20916;-60
2022/09/30 02:04:44;;;;;;;21.97;17.47;;;;;;;13.82;100.00;100285.28;1753866;81;20925;-60
2022/09/30 02:07:15;;;;;;;26.10;18.00;;;;;;;13.88;100.00;100284.98;1761224;81;21588;-59
2022/09/30 02:10:14;;;;;;;22.97;18.07;;;;;;;13.85;100.00;100280.95;1734394;81;20988;-60
2022/09/30 02:12:47;;;;;;;22.67;19.13;;;;;;;13.80;100.00;100286.52;1761176;81;21671;-59
2022/09/30 02:15:18;;;;;;;24.23;19.77;;;;;;;13.85;100.00;100281.46;1761112;81;21020;-59
2022/09/30 02:17:48;;;;;;;22.07;17.52;;;;;;;13.79;100.00;100277.86;1753444;81;20988;-60
2022/09/30 02:20:22;;;;;;;25.00;18.73;;;;;;;13.79;100.00;100284.91;1730905;82;20979;-59
2022/09/30 02:23:03;;;;;;;22.10;18.90;;;;;;;13.80;100.00;100283.39;1704856;82;21011;-59
2022/09/30 02:25:41;;;;;;;24.53;19.77;;;;;;;13.85;100.00;100277.53;1730602;82;21094;-59
2022/09/30 02:28:11;;;;;;;25.30;19.80;;;;;;;13.88;100.00;100272.69;1730209;82;21403;-58
2022/09/30 02:30:42;;;;;;;24.97;19.00;;;;;;;13.93;100.00;100280.44;1730858;82;21494;-59
2022/09/30 02:33:11;;;;;;;;;;;;;;;13.91;100.00;100277.23;1733150;82;20869;-59
2022/09/30 02:35:44;;;;;;;22.77;17.73;;;;;;;13.97;100.00;100277.20;1731130;82;20281;-59
2022/09/30 02:38:20;;;;;;;27.77;20.57;;;;;;;13.94;100.00;100272.39;1730926;82;21466;-59
2022/09/30 02:41:01;;;;;;;37.37;23.47;;;;;;;13.93;100.00;100272.58;1683917;85;21079;-63
2022/09/30 02:43:28;;;;;;;25.80;20.30;;;;;;;13.90;100.00;100269.05;1730406;82;21681;-59
2022/09/30 02:46:06;;;;;;;23.07;19.70;;;;;;;13.87;100.00;100271.09;1730929;82;20977;-59
2022/09/30 02:49:21;;;;;;;24.27;20.07;;;;;;;13.90;100.00;100271.67;1730518;82;20928;-60
2022/09/30 02:52:08;;;;;;;25.93;20.70;;;;;;;13.90;100.00;100272.98;1670854;85;21242;-61
2022/09/30 02:55:01;;;;;;;26.93;20.63;;;;;;;13.91;100.00;100278.55;1670860;85;21122;-59
2022/09/30 02:57:57;;;;;;;25.87;19.63;;;;;;;13.90;100.00;100275.61;1714405;82;20944;-60
2022/09/30 03:00:24;;;;;;;27.47;21.33;;;;;;;13.79;100.00;100271.30;1731029;82;22164;-61
2022/09/30 03:02:55;;;;;;;27.67;21.47;;;;;;;13.85;100.00;100278.33;1731179;82;21518;-61
2022/09/30 03:05:22;;;;;;;44.00;25.72;;;;;;;13.93;100.00;100275.20;1732491;82;21276;-61
2022/09/30 03:07:49;;;;;;;40.37;25.63;;;;;;;13.90;100.00;100279.03;1733982;82;21576;-61
2022/09/30 03:10:17;;;;;;;33.33;23.43;;;;;;;13.92;100.00;100279.64;1734003;82;20892;-61
2022/09/30 03:13:33;;;;;;;37.60;24.83;;;;;;;13.93;100.00;100276.52;1734097;82;20987;-61
2022/09/30 03:16:21;;;;;;;38.93;25.33;;;;;;;13.94;100.00;100276.33;1733283;82;20949;-61
2022/09/30 03:19:12;;;;;;;32.33;21.47;;;;;;;13.94;100.00;100277.64;1733732;82;22478;-61
2022/09/30 03:21:59;;;;;;;26.57;20.15;;;;;;;13.94;100.00;100280.26;1734018;82;21068;-61
2022/09/30 03:24:50;;;;;;;26.30;22.47;;;;;;;13.93;100.00;100291.73;1732151;82;21039;-61
2022/09/30 03:27:39;;;;;;;25.50;22.07;;;;;;;13.93;100.00;100297.48;1734090;82;20980;-60
2022/09/30 03:30:25;;;;;;;25.20;21.00;;;;;;;13.98;100.00;100309.45;1734009;82;20976;-60
2022/09/30 03:33:21;;;;;;;25.27;21.70;;;;;;;14.14;100.00;100316.11;1734043;82;21245;-60
2022/09/30 03:36:12;;;;;;;26.00;20.07;;;;;;;14.16;100.00;100307.00;1732688;82;20888;-60
2022/09/30 03:39:03;;;;;;;23.15;19.82;;;;;;;14.15;100.00;100310.64;1733524;82;20905;-60
2022/09/30 03:41:48;;;;;;;29.98;22.40;;;;;;;14.19;100.00;100317.09;1734236;82;20909;-60
2022/09/30 03:44:26;;;;;;;26.23;22.20;;;;;;;14.25;100.00;100320.21;1733775;82;21018;-60
2022/09/30 03:47:00;;;;;;;24.37;21.57;;;;;;;14.33;100.00;100325.23;1709361;82;21144;-60
2022/09/30 03:49:31;;;;;;;25.23;21.27;;;;;;;14.41;100.00;100326.02;1733970;82;21241;-60
2022/09/30 03:51:58;;;;;;;24.18;20.10;;;;;;;14.44;100.00;100325.11;1733693;82;26924;-61
2022/09/30 03:54:25;;;;;;;26.63;21.97;;;;;;;14.40;100.00;100321.80;1733987;82;21070;-60
2022/09/30 03:56:53;;;;;;;25.90;21.13;;;;;;;14.31;100.00;100325.93;1734053;82;21549;-60
2022/09/30 03:59:27;;;;;;;27.63;21.93;;;;;;;14.41;100.00;100328.14;1733987;82;21264;-60
2022/09/30 04:01:55;;;;;;;29.33;22.87;;;;;;;14.48;100.00;100327.61;1733399;82;20968;-60
2022/09/30 04:04:23;;;;;;;25.93;22.47;;;;;;;14.49;100.00;100329.73;1734047;82;21569;-61
2022/09/30 04:06:50;;;;;;;26.47;22.87;;;;;;;14.56;100.00;100329.23;1733927;82;20929;-60
2022/09/30 04:09:17;;;;;;;28.60;24.47;;;;;;;14.68;100.00;100334.12;1748636;81;20873;-60
2022/09/30 04:11:46;;;;;;;28.40;23.97;;;;;;;14.97;100.00;100322.81;1736026;81;20971;-60
2022/09/30 04:14:13;;;;;;;26.07;21.27;;;;;;;15.44;100.00;100320.69;1733911;82;20944;-60
2022/09/30 04:16:41;;;;;;;25.60;22.00;;;;;;;16.07;100.00;100319.80;1733902;82;21052;-61
2022/09/30 04:19:08;;;;;;;24.90;20.13;;;;;;;16.53;100.00;100321.92;1734000;82;20971;-61
2022/09/30 04:21:36;;;;;;;25.57;21.73;;;;;;;17.16;100.00;100314.97;1733309;82;21032;-63
2022/09/30 04:24:04;;;;;;;26.80;22.63;;;;;;;17.92;100.00;100319.17;1733989;82;21260;-60
2022/09/30 04:26:32;;;;;;;28.60;20.83;;;;;;;18.54;100.00;100314.14;1734100;82;21008;-61
2022/09/30 04:29:00;;;;;;;23.83;21.03;;;;;;;19.30;100.00;100319.25;1734078;82;21459;-60
2022/09/30 04:31:27;;;;;;;27.17;22.53;;;;;;;20.01;100.00;100314.28;1734116;82;20901;-61
2022/09/30 04:33:56;;;;;;;24.80;22.30;;;;;;;20.68;100.00;100309.30;1733367;82;21116;-61
2022/09/30 04:36:23;;;;;;;23.93;21.47;;;;;;;21.04;100.00;100312.59;1734093;82;22378;-61
2022/09/30 04:38:51;;;;;;;23.97;21.50;;;;;;;21.61;100.00;100306.73;1733854;82;20909;-61
2022/09/30 04:41:19;;;;;;;21.43;19.27;;;;;;;22.05;100.00;100314.45;1734137;82;21391;-60
2022/09/30 04:43:47;;;;;;;22.37;20.07;;;;;;;22.52;100.00;100314.14;1733304;82;21048;-60
2022/09/30 04:46:19;;;;;;;22.00;19.70;;;;;;;22.68;100.00;100317.64;1734040;82;21038;-60
2022/09/30 04:48:46;;;;;;;22.80;20.37;;;;;;;22.67;100.00;100321.36;1733934;82;21149;-60
2022/09/30 04:51:14;;;;;;;23.00;20.63;;;;;;;22.59;100.00;100320.80;1733916;82;20944;-60
2022/09/30 04:53:41;;;;;;;21.33;19.23;;;;;;;22.56;100.00;100323.98;1733318;82;21054;-61
2022/09/30 04:56:09;;;;;;;22.77;20.43;;;;;;;22.52;100.00;100323.44;1733898;82;21050;-60
2022/09/30 04:58:37;;;;;;;21.03;19.03;;;;;;;22.46;100.00;100329.78;1733970;82;20933;-60
2022/09/30 05:01:06;;;;;;;23.40;20.97;;;;;;;22.42;100.00;100336.67;1733867;82;22107;-59
2022/09/30 05:03:34;;;;;;;23.40;21.10;;;;;;;22.36;100.00;100335.86;1733918;82;21534;-59
2022/09/30 05:06:03;;;;;;;21.00;18.90;;;;;;;22.26;100.00;100336.60;1731856;82;20995;-58
2022/09/30 05:08:32;;;;;;;22.50;20.23;;;;;;;22.31;100.00;100332.66;1730878;82;21143;-59
2022/09/30 05:11:04;;;;;;;21.33;19.17;;;;;;;22.26;100.00;100338.47;1747765;81;20889;-58
2022/09/30 05:13:34;;;;;;;21.33;19.13;;;;;;;22.24;100.00;100330.77;1754093;81;21227;-59
2022/09/30 05:16:03;;;;;;;22.80;20.37;;;;;;;22.24;100.00;100333.95;1756865;81;21665;-58
2022/09/30 05:18:33;;;;;;;20.00;17.93;;;;;;;22.28;100.00;100337.16;1753694;81;21035;-58
2022/09/30 05:21:00;;;;;;;22.33;19.77;;;;;;;22.41;100.00;100342.52;1757256;81;20998;-58
2022/09/30 05:23:29;;;;;;;21.50;19.30;;;;;;;22.48;100.00;100339.63;1752561;81;20993;-64
2022/09/30 05:25:56;;;;;;;20.77;18.77;;;;;;;22.48;100.00;100349.72;1754811;81;21142;-58
2022/09/30 05:28:24;;;;;;;21.00;18.97;;;;;;;22.49;100.00;100357.16;1749228;80;21300;-59
2022/09/30 05:31:00;;;;;;;26.47;23.93;;;;;;;22.52;100.00;100362.75;1751780;81;20988;-59
2022/09/30 05:33:28;;;;;;;37.90;34.30;;;;;;;22.53;100.00;100362.22;1757171;81;21005;-64
2022/09/30 05:36:00;;;;;;;43.77;39.60;;;;;;;22.57;100.00;100369.41;1752341;81;20968;-58
2022/09/30 05:38:28;;;;;;;29.83;26.90;;;;;;;22.62;100.00;100362.01;1760909;81;21385;-58
2022/09/30 05:40:55;;;;;;;22.13;20.03;;;;;;;22.74;100.00;100366.56;1760536;81;20992;-59
2022/09/30 05:43:22;;;;;;;21.07;18.90;;;;;;;22.68;100.00;100368.12;1761110;81;21477;-59
2022/09/30 05:45:55;;;;;;;22.73;20.60;;;;;;;22.97;100.00;100361.88;1760225;81;21538;-59
2022/09/30 05:48:22;;;;;;;23.40;21.00;;;;;;;23.22;100.00;100363.76;1760620;81;21299;-59
2022/09/30 05:50:56;;;;;;;18.67;16.73;;;;;;;23.28;100.00;100360.84;1761056;81;21304;-57
2022/09/30 05:53:23;;;;;;;21.17;19.03;;;;;;;23.44;100.00;100357.66;1760784;81;20936;-61
2022/09/30 05:55:50;;;;;;;22.97;18.40;;;;;;;23.70;100.00;100357.16;1750864;81;21501;-58
2022/09/30 05:58:18;;;;;;;18.62;16.75;;;;;;;24.16;100.00;100358.94;1749794;81;21083;-57
2022/09/30 06:00:46;;;;;;;16.65;15.03;;;;;;;24.84;100.00;100362.42;1761085;81;21478;-57
2022/09/30 06:03:15;;;;;;;15.90;14.30;;;;;;;25.51;100.00;100358.80;1747564;81;20897;-57
2022/09/30 06:05:44;;;;;;;16.85;15.28;;;;;;;26.16;100.00;100357.93;1731129;82;21035;-58
2022/09/30 06:08:12;;;;;;;14.40;13.00;;;;;;;26.73;100.00;100364.20;1733846;82;22305;-57
2022/09/30 06:10:41;;;;;;;14.75;12.63;;;;;;;27.54;100.00;100367.58;1733877;82;20900;-57
2022/09/30 06:13:09;;;;;;;13.30;12.10;;;;;;;28.31;100.00;100369.67;1734022;82;20941;-57
2022/09/30 06:15:38;;;;;;;12.30;11.20;;;;;;;28.93;100.00;100369.19;1733884;82;21830;-62
2022/09/30 06:18:05;;;;;;;11.33;10.32;;;;;;;29.36;98.01;100363.92;1733609;82;20992;-57
2022/09/30 06:20:32;;;;;;;11.25;10.05;;;;;;;30.00;90.35;100366.61;1733938;82;20952;-57
2022/09/30 06:23:00;;;;;;;10.98;9.98;;;;;;;30.28;76.69;100360.47;1733881;82;21068;-58
2022/09/30 06:25:28;;;;;;;11.05;9.90;;;;;;;30.59;75.45;100362.83;1733987;82;20992;-57
2022/09/30 06:27:55;;;;;;;10.48;9.48;;;;;;;30.94;67.96;100365.01;1733422;82;21265;-58
2022/09/30 06:30:23;;;;;;;9.73;8.85;;;;;;;31.19;63.09;100364.77;1737401;81;20971;-57
2022/09/30 06:32:57;;;;;;;11.55;10.45;;;;;;;31.33;62.62;100368.11;1733972;82;20963;-57
2022/09/30 06:35:25;;;;;;;11.78;10.68;;;;;;;31.43;58.60;100374.48;1709724;82;20964;-59
2022/09/30 06:37:52;;;;;;;10.38;9.43;;;;;;;31.52;58.09;100373.14;1733555;82;20980;-57
2022/09/30 06:40:22;;;;;;;9.83;8.93;;;;;;;31.71;55.54;100374.91;1734129;82;21228;-57
2022/09/30 06:42:49;;;;;;;9.23;8.33;;;;;;;31.82;54.49;100382.63;1754102;81;20932;-57
2022/09/30 06:45:17;;;;;;;9.58;8.68;;;;;;;31.99;53.61;100382.60;1764283;81;20976;-58
2022/09/30 06:47:45;;;;;;;9.18;8.28;;;;;;;31.95;52.29;100389.20;1762748;81;21023;-63
2022/09/30 06:50:12;;;;;;;8.90;8.00;;;;;;;31.89;52.75;100389.69;1759161;81;21134;-57
2022/09/30 06:52:40;;;;;;;8.65;7.85;;;;;;;31.62;53.53;100385.47;1756047;81;21110;-58
2022/09/30 06:55:08;;;;;;;9.75;8.13;;;;;;;31.32;54.84;100385.92;1760751;81;20919;-57
2022/09/30 06:57:35;;;;;;;8.58;7.67;;;;;;;30.84;57.68;100387.66;1762569;81;20966;-57
2022/09/30 07:00:03;;;;;;;9.90;8.68;;;;;;;30.41;64.00;100385.65;1763562;81;21001;-58
2022/09/30 07:02:33;;;;;;;8.65;7.83;;;;;;;30.18;68.81;100393.02;1764345;81;21150;-57
2022/09/30 07:05:02;;;;;;;8.83;7.87;;;;;;;30.11;70.41;100391.84;1764507;81;21154;-56
2022/09/30 07:07:33;;;;;;;9.20;7.92;;;;;;;29.95;74.38;100379.37;1764270;81;20918;-57
2022/09/30 07:09:58;;;;;;;9.68;8.55;;;;;;;29.78;78.55;100380.11;1757972;81;21002;-62
2022/09/30 07:12:25;;;;;;;9.43;8.50;;;;;;;29.68;82.02;100379.80;1757499;81;21443;-58
2022/09/30 07:14:54;;;;;;;9.00;7.60;;;;;;;29.73;80.29;100379.66;1758043;81;21057;-58
2022/09/30 07:17:22;;;;;;;9.08;7.80;;;;;;;29.70;80.79;100384.33;1750764;81;21239;-57
2022/09/30 07:19:51;;;;;;;9.05;7.55;;;;;;;29.45;83.55;100380.91;1749058;81;20973;-63
2022/09/30 07:22:33;;;;;;;8.38;7.47;;;;;;;29.34;87.86;100383.83;1756342;81;21351;-57
2022/09/30 07:25:02;;;;;;;10.60;8.18;;;;;;;29.31;88.79;100385.77;1748884;81;21452;-61
2022/09/30 07:27:31;;;;;;;9.90;8.23;;;;;;;29.31;88.56;100389.80;1757170;81;21543;-57
2022/09/30 07:29:59;;;;;;;10.13;8.08;;;;;;;29.29;91.71;100394.70;1756789;81;21128;-57
2022/09/30 07:32:26;;;;;;;8.50;7.53;;;;;;;29.43;87.51;100395.96;1757792;81;21071;-57
2022/09/30 07:34:54;;;;;;;10.53;8.05;;;;;;;29.32;87.20;100394.09;1757662;81;21061;-57
2022/09/30 07:37:21;;;;;;;8.48;7.12;;;;;;;29.05;90.78;100399.55;1757740;81;21040;-59
2022/09/30 07:39:48;;;;;;;8.70;7.80;;;;;;;28.75;93.41;100407.16;1705757;81;20994;-58
2022/09/30 07:42:18;;;;;;;8.85;7.78;;;;;;;28.53;99.80;100405.75;1757768;81;21749;-56
2022/09/30 07:44:45;;;;;;;9.23;8.00;;;;;;;28.45;100.00;100409.92;1763350;81;20940;-57
2022/09/30 07:47:13;;;;;;;9.35;8.45;;;;;;;28.42;100.00;100404.37;1764365;81;20948;-57
2022/09/30 07:49:42;;;;;;;11.33;8.20;;;;;;;28.28;100.00;100410.48;1763718;81;20988;-57
2022/09/30 07:52:11;;;;;;;10.98;8.25;;;;;;;28.21;100.00;100412.75;1764372;81;21174;-57
2022/09/30 07:54:38;;;;;;;9.15;8.18;;;;;;;28.24;100.00;100411.38;1764345;81;21164;-57
2022/09/30 07:57:05;;;;;;;9.78;7.85;;;;;;;28.23;100.00;100399.86;1764429;81;21561;-56
2022/09/30 07:59:37;;;;;;;9.23;8.23;;;;;;;28.01;100.00;100403.77;1763810;81;21013;-64
2022/09/30 08:02:05;;;;;;;10.35;8.98;;;;;;;28.01;100.00;100403.77;1764443;81;20975;-58
2022/09/30 08:04:33;;;;;;;12.43;9.53;;;;;;;27.79;100.00;100400.39;1764495;81;20992;-56
2022/09/30 08:07:01;;;;;;;11.22;9.90;;;;;;;27.40;100.00;100407.69;1764470;81;21116;-57
2022/09/30 08:09:30;;;;;;;10.63;9.53;;;;;;;27.05;100.00;100406.83;1763819;81;21569;-60
2022/09/30 08:11:57;;;;;;;11.57;9.48;;;;;;;26.82;100.00;100407.14;1764428;81;21047;-56
2022/09/30 08:14:26;;;;;;;10.75;9.65;;;;;;;26.56;100.00;100397.33;1764365;81;20996;-57
2022/09/30 08:16:54;;;;;;;9.93;8.88;;;;;;;26.44;100.00;100399.84;1764682;81;20948;-57
2022/09/30 08:19:23;;;;;;;12.55;10.23;;;;;;;26.26;100.00;100387.22;1754883;81;21213;-63
2022/09/30 08:21:52;;;;;;;10.65;9.43;;;;;;;26.26;100.00;100385.09;1757866;81;21003;-56
2022/09/30 08:24:20;;;;;;;11.85;10.03;;;;;;;26.12;100.00;100383.08;1764328;81;21423;-56
2022/09/30 08:26:47;;;;;;;13.32;11.60;;;;;;;25.98;100.00;100387.49;1764517;81;20929;-56
2022/09/30 08:29:15;;;;;;;12.13;10.78;;;;;;;25.82;100.00;100386.84;1764894;81;21568;-56
2022/09/30 08:31:42;;;;;;;12.15;9.83;;;;;;;25.71;100.00;100386.65;1763903;81;22335;-56
2022/09/30 08:34:09;;;;;;;11.48;10.28;;;;;;;25.60;100.00;100389.14;1764363;81;20992;-56
2022/09/30 08:36:37;;;;;;;11.48;8.83;;;;;;;25.49;100.00;100387.09;1764472;81;21565;-56
2022/09/30 08:39:04;;;;;;;10.13;9.13;;;;;;;25.32;100.00;100390.70;1764334;81;21479;-56
2022/09/30 08:41:52;;;;;;;10.53;9.17;;;;;;;25.26;100.00;100397.14;1764200;81;20968;-57
2022/09/30 08:44:42;;;;;;;10.45;9.30;;;;;;;25.35;100.00;100395.49;1764786;81;21168;-56
2022/09/30 08:47:29;;;;;;;11.90;10.18;;;;;;;25.54;100.00;100392.95;1763753;81;20936;-57
2022/09/30 08:50:21;;;;;;;13.70;10.05;;;;;;;25.74;100.00;100392.77;1743254;81;20937;-57
2022/09/30 08:52:51;;;;;;;11.77;9.00;;;;;;;25.80;100.00;100397.55;1764097;81;20988;-56
2022/09/30 08:55:28;;;;;;;11.05;9.05;;;;;;;25.78;100.00;100396.50;1764405;81;21012;-57
2022/09/30 08:57:55;;;;;;;11.27;8.50;;;;;;;25.75;100.00;100398.36;1764518;81;21110;-58
2022/09/30 09:00:23;;;;;;;10.10;8.23;;;;;;;25.86;100.00;100401.77;1763987;81;20968;-64
2022/09/30 09:02:55;;;;;;;9.20;8.30;;;;;;;25.95;100.00;100410.24;1764262;81;21083;-56
2022/09/30 09:05:54;;;;;;;9.47;8.47;;;;;;;25.99;100.00;100405.64;1764557;81;21056;-56
2022/09/30 09:08:30;;;;;;;8.98;8.05;;;;;;;25.94;100.00;100405.95;1761534;81;20992;-56
2022/09/30 09:11:29;;;;;;;10.10;8.73;;;;;;;26.01;100.00;100402.17;1761019;81;21847;-57
2022/09/30 09:14:01;;;;;;;10.35;8.95;;;;;;;26.14;100.00;100406.86;1729210;81;21292;-57
2022/09/30 09:16:51;;;;;;;10.20;8.83;;;;;;;26.27;100.00;100403.50;1761214;81;20988;-57
2022/09/30 09:19:25;;;;;;;10.70;8.83;;;;;;;26.38;100.00;100410.87;1760840;81;21123;-57
2022/09/30 09:21:56;;;;;;;9.65;8.70;;;;;;;26.48;100.00;100412.12;1761170;81;21052;-58
2022/09/30 09:24:42;;;;;;;10.80;8.63;;;;;;;26.59;100.00;100410.90;1761220;81;21821;-58
2022/09/30 09:27:52;;;;;;;10.43;8.88;;;;;;;26.67;100.00;100416.18;1760432;81;22289;-57
2022/09/30 09:30:24;;;;;;;10.30;8.20;;;;;;;26.59;100.00;100420.80;1760601;81;21095;-57
2022/09/30 09:32:57;;;;;;;15.70;12.98;;;;;;;26.55;100.00;100421.12;1761122;81;21027;-57
2022/09/30 09:35:32;;;;;;;13.35;10.55;;;;;;;26.59;100.00;100420.80;1761089;81;21542;-56
2022/09/30 09:38:30;;;;;;;11.83;9.10;;;;;;;26.62;100.00;100421.57;1759967;81;21280;-57
2022/09/30 09:41:17;;;;;;;9.58;7.25;;;;;;;26.65;100.00;100418.33;1761103;81;20928;-57
2022/09/30 09:43:57;;;;;;;10.45;6.37;;;;;;;26.61;100.00;100426.13;1761141;81;21129;-57
2022/09/30 09:46:48;;;;;;;8.50;6.40;;;;;;;26.51;100.00;100430.25;1761057;81;20976;-56
2022/09/30 09:49:22;;;;;;;7.30;6.22;;;;;;;26.50;100.00;100431.88;1761248;81;21109;-56
2022/09/30 09:52:23;;;;;;;7.65;6.08;;;;;;;26.47;100.00;100431.11;1761191;81;21783;-57
2022/09/30 09:54:51;;;;;;;5.83;5.22;;;;;;;26.39;100.00;100435.96;1761233;81;21028;-57
2022/09/30 09:57:26;;;;;;;6.67;5.47;;;;;;;26.24;100.00;100439.34;1761087;81;21498;-59
2022/09/30 09:59:57;;;;;;;7.72;6.15;;;;;;;26.07;100.00;100441.13;1759852;81;20901;-61
2022/09/30 10:02:30;;;;;;;8.40;6.43;;;;;;;25.98;100.00;100446.80;1761079;81;21007;-56
2022/09/30 10:05:02;;;;;;;8.07;5.77;;;;;;;25.88;100.00;100447.70;1761027;81;21245;-57
2022/09/30 10:07:29;;;;;;;7.47;5.95;;;;;;;25.79;100.00;100443.48;1730811;81;21588;-56
2022/09/30 10:10:17;;;;;;;8.83;5.97;;;;;;;25.72;100.00;100441.63;1712256;83;21003;-56
2022/09/30 10:12:46;;;;;;;9.50;6.10;;;;;;;25.74;100.00;100440.83;1712476;83;21587;-58
2022/09/30 10:15:25;;;;;;;9.65;5.10;;;;;;;25.83;100.00;100437.83;1712023;82;20943;-64
2022/09/30 10:17:56;;;;;;;6.77;5.33;;;;;;;25.98;100.00;100433.44;1712550;82;21145;-57
2022/09/30 10:20:33;;;;;;;8.75;5.62;;;;;;;26.14;100.00;100434.38;1712707;83;21002;-59
2022/09/30 10:23:23;;;;;;;6.05;5.00;;;;;;;26.34;100.00;100433.90;1712263;82;20919;-58
2022/09/30 10:26:07;;;;;;;6.53;4.97;;;;;;;26.63;100.00;100435.19;1697918;83;21117;-60
2022/09/30 10:28:47;;;;;;;6.97;5.90;;;;;;;26.92;100.00;100431.88;1711323;82;21042;-64
2022/09/30 10:31:37;;;;;;;5.72;4.85;;;;;;;26.91;100.00;100432.97;1712690;83;21547;-59
2022/09/30 10:34:24;;;;;;;7.28;5.53;;;;;;;26.85;100.00;100438.67;1712833;83;20962;-66
2022/09/30 10:36:52;;;;;;;6.87;5.35;;;;;;;26.79;100.00;100437.95;1712485;83;20938;-59
2022/09/30 10:39:34;;;;;;;7.37;4.97;;;;;;;26.75;100.00;100439.61;1712772;82;21013;-59
2022/09/30 10:42:07;;;;;;;8.00;5.92;;;;;;;26.65;100.00;100435.71;1748709;81;20928;-59
2022/09/30 10:44:47;;;;;;;6.33;5.20;;;;;;;26.61;100.00;100432.02;1751302;81;21805;-59
2022/09/30 10:47:18;;;;;;;7.42;5.35;;;;;;;26.71;100.00;100434.58;1751231;81;21509;-59
2022/09/30 10:49:48;;;;;;;9.93;5.97;;;;;;;26.71;100.00;100430.56;1750643;81;20884;-60
2022/09/30 10:52:21;;;;;;;9.68;6.28;;;;;;;26.65;100.00;100427.69;1751452;81;21580;-59
2022/09/30 10:54:55;;;;;;;9.25;7.37;;;;;;;26.55;100.00;100422.45;1750157;81;21525;-60
2022/09/30 10:57:29;;;;;;;9.58;7.03;;;;;;;26.35;100.00;100425.59;1761215;81;21155;-59
2022/09/30 11:00:04;;;;;;;11.60;7.50;;;;;;;26.18;100.00;100423.91;1733389;81;21023;-59
2022/09/30 11:02:40;;;;;;;9.78;7.95;;;;;;;26.03;100.00;100420.06;1761154;81;21048;-60
2022/09/30 11:05:17;;;;;;;8.67;7.60;;;;;;;26.01;100.00;100421.66;1760498;81;20972;-66
2022/09/30 11:08:03;;;;;;;12.10;9.63;;;;;;;26.03;100.00;100420.06;1761718;81;21479;-59
2022/09/30 11:11:09;;;;;;;13.20;10.70;;;;;;;26.07;100.00;100415.20;1764491;81;21419;-61
2022/09/30 11:13:48;;;;;;;9.20;8.30;;;;;;;26.16;100.00;100414.03;1764393;81;21026;-59
2022/09/30 11:16:52;;;;;;;13.33;9.80;;;;;;;26.15;100.00;100415.91;1764038;81;20932;-59
2022/09/30 11:19:36;;;;;;;13.00;10.38;;;;;;;26.09;100.00;100419.70;1764211;81;21093;-61
2022/09/30 11:22:25;;;;;;;17.07;9.37;;;;;;;26.01;100.00;100411.52;1764468;81;20881;-58
2022/09/30 11:24:52;;;;;;;9.57;8.27;;;;;;;26.01;100.00;100418.20;1764248;81;21238;-59
2022/09/30 11:27:48;;;;;;;11.63;9.80;;;;;;;26.12;100.00;100414.34;1764370;81;20988;-58
2022/09/30 11:30:50;;;;;;;11.05;9.38;;;;;;;26.12;100.00;100417.02;1764539;81;21012;-57
2022/09/30 11:33:59;;;;;;;11.33;10.20;;;;;;;26.17;100.00;100418.30;1739497;81;20889;-58
2022/09/30 11:36:37;;;;;;;11.93;10.20;;;;;;;26.17;100.00;100408.94;1764269;81;20988;-58
2022/09/30 11:39:29;;;;;;;15.03;9.73;;;;;;;26.30;100.00;100414.17;1764732;81;21205;-60
2022/09/30 11:42:04;;;;;;;10.90;9.30;;;;;;;26.36;100.00;100410.34;1764572;81;20933;-58